Time;durP1;ratioP1;P1;durP2;ratioP2;P2;SDS_P1;SDS_P2;PMS_P1;PMS_P2;Temp;Humidity;BMP_temperature;BMP_pressure;BME280_temperature;BME280_humidity;BME280_pressure;Samples;Min_cycle;Max_cycle;Signal;HPM_P1;HPM_P2
2022/08/26 00:02:15;;;;;;;40.17;31.23;;;20.90;99.90;;;;;;5071912;28;20056;-71
2022/08/26 00:04:40;;;;;;;40.00;29.67;;;20.90;99.90;;;;;;5071719;28;20041;-72
2022/08/26 00:07:06;;;;;;;39.53;27.25;;;20.90;99.90;;;;;;5071679;28;20045;-72
2022/08/26 00:09:32;;;;;;;42.00;30.25;;;20.90;99.90;;;;;;5067169;28;20057;-73
2022/08/26 00:11:58;;;;;;;41.63;28.63;;;21.00;99.90;;;;;;5076444;28;20123;-73
2022/08/26 00:14:24;;;;;;;40.80;27.02;;;20.90;99.90;;;;;;5091628;28;20119;-72
2022/08/26 00:16:50;;;;;;;41.83;26.70;;;20.90;99.90;;;;;;5083841;28;20059;-71
2022/08/26 00:19:18;;;;;;;35.55;24.38;;;20.90;99.90;;;;;;5051725;28;20053;-73
2022/08/26 00:21:46;;;;;;;34.72;23.38;;;20.90;99.90;;;;;;5051593;28;20115;-73
2022/08/26 00:24:12;;;;;;;40.42;24.33;;;20.90;99.90;;;;;;5051252;28;20119;-73
2022/08/26 00:26:38;;;;;;;34.88;22.50;;;20.90;99.90;;;;;;5051566;28;20385;-72
2022/08/26 00:29:04;;;;;;;33.03;22.60;;;20.90;99.90;;;;;;5052664;28;20049;-71
2022/08/26 00:31:30;;;;;;;31.70;22.55;;;20.90;99.90;;;;;;5051420;28;20102;-73
2022/08/26 00:33:56;;;;;;;33.47;22.25;;;20.90;99.90;;;;;;5033787;28;20053;-72
2022/08/26 00:36:22;;;;;;;37.25;21.92;;;20.90;99.90;;;;;;5033822;28;20404;-72
2022/08/26 00:38:48;;;;;;;46.80;21.75;;;21.00;99.90;;;;;;5052386;28;20052;-72
2022/08/26 00:41:14;;;;;;;32.70;21.15;;;21.00;99.90;;;;;;5051147;28;20053;-74
2022/08/26 00:43:39;;;;;;;31.33;19.55;;;20.90;99.90;;;;;;5051258;28;20037;-73
2022/08/26 00:46:33;;;;;;;30.42;20.80;;;21.00;99.90;;;;;;5051027;28;20111;-71
2022/08/26 00:49:08;;;;;;;37.80;21.45;;;21.00;99.90;;;;;;5050266;28;20049;-73
2022/08/26 00:51:36;;;;;;;;;;;21.00;99.90;;;;;;5050658;28;20135;-72
2022/08/26 00:54:08;;;;;;;33.75;19.75;;;21.00;99.90;;;;;;5050914;28;20448;-72
2022/08/26 00:56:42;;;;;;;38.30;20.55;;;20.90;99.90;;;;;;5050842;28;20048;-74
2022/08/26 00:59:10;;;;;;;26.50;18.80;;;21.00;99.90;;;;;;5051891;28;20049;-71
2022/08/26 01:01:38;;;;;;;34.38;18.42;;;21.00;99.90;;;;;;5050381;28;20040;-72
2022/08/26 01:04:03;;;;;;;29.63;17.90;;;21.00;99.90;;;;;;5050751;28;20064;-73
2022/08/26 01:06:30;;;;;;;33.40;18.52;;;20.90;99.90;;;;;;5050734;28;20440;-71
2022/08/26 01:08:55;;;;;;;28.13;18.05;;;20.90;99.90;;;;;;5032701;28;20045;-71
2022/08/26 01:11:21;;;;;;;36.47;17.60;;;21.00;99.90;;;;;;5051777;28;20118;-72
2022/08/26 01:13:51;;;;;;;32.88;17.17;;;21.00;99.90;;;;;;5050690;28;20040;-72
2022/08/26 01:16:16;;;;;;;31.67;18.58;;;21.00;99.90;;;;;;5050602;28;20041;-71
2022/08/26 01:18:44;;;;;;;32.65;18.75;;;21.00;99.90;;;;;;5050114;28;20044;-72
2022/08/26 01:21:19;;;;;;;36.08;17.85;;;20.90;99.90;;;;;;5051819;28;20036;-70
2022/08/26 01:23:48;;;;;;;34.13;18.08;;;20.90;99.90;;;;;;5050765;28;20048;-72
2022/08/26 01:26:23;;;;;;;34.35;18.52;;;21.00;99.90;;;;;;5050457;28;20055;-71
2022/08/26 01:28:50;;;;;;;27.88;17.98;;;20.90;99.90;;;;;;5050549;28;20528;-72
2022/08/26 01:31:19;;;;;;;29.80;17.67;;;20.90;99.90;;;;;;5051607;28;20108;-72
2022/08/26 01:34:13;;;;;;;32.17;18.65;;;21.00;99.90;;;;;;5050445;28;20045;-71
2022/08/26 01:36:40;;;;;;;35.90;19.80;;;20.90;99.90;;;;;;4988483;28;20047;-72
2022/08/26 01:39:06;;;;;;;38.08;19.88;;;20.90;99.90;;;;;;4987905;28;20069;-71
2022/08/26 01:41:33;;;;;;;39.60;19.17;;;21.10;99.90;;;;;;5007739;28;20050;-71
2022/08/26 01:44:01;;;;;;;35.70;19.20;;;20.90;99.90;;;;;;4973016;28;20108;-71
2022/08/26 01:46:29;;;;;;;28.42;17.70;;;20.90;99.90;;;;;;4988767;28;20443;-70
2022/08/26 01:48:58;;;;;;;28.52;17.90;;;20.90;99.90;;;;;;4988047;28;20039;-70
2022/08/26 01:51:26;;;;;;;40.50;19.65;;;20.90;99.90;;;;;;4971894;28;20058;-71
2022/08/26 01:53:53;;;;;;;35.63;19.02;;;20.80;99.90;;;;;;4989354;28;20054;-72
2022/08/26 01:56:20;;;;;;;31.17;18.38;;;20.80;99.90;;;;;;4988303;28;20081;-71
2022/08/26 01:58:52;;;;;;;38.50;18.10;;;20.80;99.90;;;;;;4972134;28;20066;-73
2022/08/26 02:01:18;;;;;;;34.40;18.67;;;20.80;99.90;;;;;;4973434;28;20527;-73
2022/08/26 02:04:07;;;;;;;32.90;18.67;;;20.90;99.90;;;;;;5000582;28;20046;-72
2022/08/26 02:06:34;;;;;;;32.67;18.25;;;20.90;99.90;;;;;;5007298;28;20103;-72
2022/08/26 02:09:01;;;;;;;29.70;17.98;;;20.80;99.90;;;;;;5007630;28;20054;-72
2022/08/26 02:11:27;;;;;;;34.53;19.33;;;20.80;99.90;;;;;;5005774;28;20072;-72
2022/08/26 02:14:00;;;;;;;38.65;18.55;;;20.80;99.90;;;;;;5022439;28;20549;-72
2022/08/26 02:16:29;;;;;;;36.90;17.08;;;20.80;99.90;;;;;;5065963;28;20055;-72
2022/08/26 02:18:55;;;;;;;34.25;19.05;;;20.80;99.90;;;;;;5078538;28;20094;-71
2022/08/26 02:21:21;;;;;;;37.10;16.77;;;20.80;99.90;;;;;;5068434;28;20051;-71
2022/08/26 02:23:47;;;;;;;37.45;17.17;;;20.80;99.90;;;;;;5055112;28;20091;-73
2022/08/26 02:26:16;;;;;;;35.72;17.17;;;20.80;99.90;;;;;;5049183;28;20076;-72
2022/08/26 02:28:57;;;;;;;33.00;17.73;;;20.80;99.90;;;;;;5085155;28;20051;-72
2022/08/26 02:31:23;;;;;;;34.88;17.23;;;20.80;99.90;;;;;;5049609;28;20085;-72
2022/08/26 02:33:48;;;;;;;29.38;15.20;;;20.80;99.90;;;;;;5071771;28;20102;-72
2022/08/26 02:36:20;;;;;;;32.83;16.45;;;20.80;99.90;;;;;;5080589;28;20064;-73
2022/08/26 02:38:46;;;;;;;33.05;16.85;;;20.80;99.90;;;;;;5049300;28;20125;-72
2022/08/26 02:41:11;;;;;;;32.30;16.52;;;20.80;99.90;;;;;;5084658;28;20131;-73
2022/08/26 02:43:37;;;;;;;34.47;17.52;;;20.80;99.90;;;;;;5054380;28;20106;-72
2022/08/26 02:46:04;;;;;;;30.83;16.52;;;20.80;99.90;;;;;;5083422;28;20048;-76
2022/08/26 02:48:30;;;;;;;29.13;15.95;;;20.70;99.90;;;;;;5049403;28;20055;-72
2022/08/26 02:50:59;;;;;;;25.85;15.73;;;20.70;99.90;;;;;;5031060;28;20433;-73
2022/08/26 02:53:25;;;;;;;36.50;15.35;;;20.70;99.90;;;;;;5053618;28;20040;-72
2022/08/26 02:55:50;;;;;;;33.80;15.40;;;20.70;99.90;;;;;;5070870;28;20055;-71
2022/08/26 02:58:16;;;;;;;26.77;14.90;;;20.70;99.90;;;;;;5089765;28;20051;-73
2022/08/26 03:00:42;;;;;;;30.17;14.70;;;20.70;99.90;;;;;;5053785;28;20101;-73
2022/08/26 03:03:07;;;;;;;26.77;13.90;;;20.70;99.90;;;;;;5069483;28;20686;-71
2022/08/26 03:05:34;;;;;;;32.45;13.68;;;20.70;99.90;;;;;;5069257;28;20131;-71
2022/08/26 03:08:00;;;;;;;24.63;12.93;;;20.70;99.90;;;;;;5057126;28;20237;-72
2022/08/26 03:10:26;;;;;;;23.45;11.85;;;20.70;99.90;;;;;;5048941;28;20486;-72
2022/08/26 03:12:52;;;;;;;25.77;12.10;;;20.70;99.90;;;;;;5064710;28;20036;-72
2022/08/26 03:15:18;;;;;;;22.13;12.02;;;20.70;99.90;;;;;;5076013;28;20797;-71
2022/08/26 03:17:47;;;;;;;32.22;12.55;;;20.70;99.90;;;;;;5054771;28;20758;-70
2022/08/26 03:20:14;;;;;;;24.80;11.27;;;20.70;99.90;;;;;;5072466;28;20071;-71
2022/08/26 03:22:40;;;;;;;26.30;11.23;;;20.70;99.90;;;;;;5072443;28;20044;-71
2022/08/26 03:25:09;;;;;;;24.15;11.75;;;20.70;99.90;;;;;;5070843;28;20170;-71
2022/08/26 03:27:35;;;;;;;22.95;10.80;;;20.70;99.90;;;;;;5053723;28;20056;-73
2022/08/26 03:32:45;;;;;;;24.58;9.82;;;20.70;99.90;;;;;;5052541;28;20044;-71
2022/08/26 03:35:11;;;;;;;22.33;9.65;;;20.70;99.90;;;;;;5052296;28;20388;-71
2022/08/26 03:37:37;;;;;;;20.42;9.15;;;20.60;99.90;;;;;;5035296;28;20056;-72
2022/08/26 03:40:05;;;;;;;22.98;9.63;;;20.60;99.90;;;;;;5052182;28;20056;-72
2022/08/26 03:42:30;;;;;;;18.77;8.60;;;20.60;99.90;;;;;;5056190;28;20044;-73
2022/08/26 03:44:56;;;;;;;24.77;9.30;;;20.60;99.90;;;;;;5091481;28;20568;-71
2022/08/26 03:47:21;;;;;;;22.10;8.73;;;20.60;99.90;;;;;;5074138;28;20053;-71
2022/08/26 03:49:47;;;;;;;21.73;9.00;;;20.60;99.90;;;;;;5052192;28;20048;-72
2022/08/26 03:52:13;;;;;;;24.73;9.15;;;20.60;99.90;;;;;;5051647;28;20741;-74
2022/08/26 03:54:39;;;;;;;25.73;10.02;;;20.60;99.90;;;;;;5016827;28;20081;-72
2022/08/26 03:57:05;;;;;;;18.45;9.18;;;20.60;99.90;;;;;;5056305;28;20123;-70
2022/08/26 03:59:30;;;;;;;21.70;9.32;;;20.60;99.90;;;;;;5071792;28;20468;-72
2022/08/26 04:01:56;;;;;;;19.23;8.35;;;20.60;99.90;;;;;;5053923;28;20044;-71
2022/08/26 04:04:22;;;;;;;23.08;8.38;;;20.50;99.90;;;;;;5070736;28;20048;-72
2022/08/26 04:06:48;;;;;;;33.85;10.40;;;20.60;99.90;;;;;;5051518;28;20690;-72
2022/08/26 04:09:18;;;;;;;18.63;8.85;;;20.60;99.90;;;;;;5034669;28;20128;-72
2022/08/26 04:11:45;;;;;;;28.02;8.93;;;20.60;99.90;;;;;;5052536;28;20053;-71
2022/08/26 04:14:22;;;;;;;21.35;8.32;;;20.60;99.90;;;;;;5080467;28;20044;-72
2022/08/26 04:16:49;;;;;;;17.60;7.50;;;20.60;99.90;;;;;;5092228;28;20056;-73
2022/08/26 04:19:16;;;;;;;17.50;8.40;;;20.60;99.90;;;;;;5074709;28;20041;-73
2022/08/26 04:21:42;;;;;;;21.42;7.28;;;20.50;99.90;;;;;;5071621;28;20375;-73
2022/08/26 04:24:11;;;;;;;19.48;8.60;;;20.50;99.90;;;;;;5053863;28;20631;-72
2022/08/26 04:26:36;;;;;;;16.92;6.90;;;20.50;99.90;;;;;;5070273;28;20044;-72
2022/08/26 04:29:09;;;;;;;24.80;7.20;;;20.50;99.90;;;;;;5068513;28;20124;-74
2022/08/26 04:31:36;;;;;;;22.73;7.78;;;20.50;99.90;;;;;;5051366;28;20426;-74
2022/08/26 04:34:03;;;;;;;16.55;6.75;;;20.50;99.90;;;;;;5051130;28;20049;-73
2022/08/26 04:36:29;;;;;;;17.85;7.65;;;20.50;99.90;;;;;;5051273;28;20823;-72
2022/08/26 04:38:56;;;;;;;14.63;7.32;;;20.50;99.90;;;;;;5050966;28;20136;-72
2022/08/26 04:41:22;;;;;;;20.75;7.30;;;20.50;99.90;;;;;;5052019;28;20045;-72
2022/08/26 04:43:49;;;;;;;25.25;6.90;;;20.50;99.90;;;;;;5050928;28;20514;-72
2022/08/26 04:46:21;;;;;;;21.30;7.00;;;20.50;99.90;;;;;;5050982;28;20037;-72
2022/08/26 04:48:51;;;;;;;21.13;7.03;;;20.50;99.90;;;;;;5032909;28;20057;-73
2022/08/26 04:51:18;;;;;;;20.90;6.60;;;20.50;99.90;;;;;;5052150;28;20060;-73
2022/08/26 04:53:43;;;;;;;17.50;6.18;;;20.50;99.90;;;;;;5059533;28;20072;-72
2022/08/26 04:56:09;;;;;;;20.10;6.05;;;20.40;99.90;;;;;;5070494;28;20045;-73
2022/08/26 04:58:35;;;;;;;13.68;5.85;;;20.40;99.90;;;;;;5052425;28;20094;-72
2022/08/26 05:01:01;;;;;;;19.27;5.88;;;20.40;99.90;;;;;;5068932;28;20048;-72
2022/08/26 05:03:27;;;;;;;16.98;5.88;;;20.50;99.90;;;;;;5070301;28;20399;-72
2022/08/26 05:05:53;;;;;;;17.33;6.57;;;20.50;99.90;;;;;;5052480;28;20720;-72
2022/08/26 05:08:21;;;;;;;18.50;5.53;;;20.40;99.90;;;;;;5068930;28;20091;-72
2022/08/26 05:10:55;;;;;;;20.13;6.47;;;20.40;99.90;;;;;;5070710;28;20542;-73
2022/08/26 05:13:24;;;;;;;21.88;6.65;;;20.50;99.90;;;;;;5037015;28;20056;-73
2022/08/26 05:15:49;;;;;;;17.63;6.80;;;20.50;99.90;;;;;;5070410;28;20130;-73
2022/08/26 05:18:18;;;;;;;19.30;6.75;;;20.50;99.90;;;;;;5073742;28;20044;-72
2022/08/26 05:20:45;;;;;;;15.93;6.45;;;20.40;99.90;;;;;;5038145;28;20049;-72
2022/08/26 05:23:12;;;;;;;18.58;6.68;;;20.50;99.90;;;;;;5051867;28;20097;-72
2022/08/26 05:25:40;;;;;;;20.80;6.60;;;20.50;99.90;;;;;;5059170;28;20132;-73
2022/08/26 05:28:11;;;;;;;20.17;7.10;;;20.50;99.90;;;;;;5070303;28;20109;-72
2022/08/26 05:30:38;;;;;;;17.45;5.95;;;20.60;99.90;;;;;;5066890;28;20135;-72
2022/08/26 05:33:05;;;;;;;19.88;5.93;;;20.50;99.90;;;;;;5068322;28;20104;-72
2022/08/26 05:35:33;;;;;;;25.52;6.75;;;20.60;99.90;;;;;;5070251;28;20041;-73
2022/08/26 05:38:03;;;;;;;18.90;5.78;;;20.60;99.90;;;;;;5070074;28;20064;-72
2022/08/26 05:40:34;;;;;;;15.85;5.38;;;20.60;99.90;;;;;;5069745;28;20051;-72
2022/08/26 05:43:00;;;;;;;22.48;6.07;;;20.60;99.90;;;;;;5068106;28;20051;-71
2022/08/26 05:45:26;;;;;;;22.48;6.28;;;20.70;99.90;;;;;;5086714;28;20400;-72
2022/08/26 05:47:52;;;;;;;16.30;5.97;;;20.70;99.90;;;;;;5080766;28;20392;-73
2022/08/26 05:50:21;;;;;;;19.98;5.55;;;20.70;99.90;;;;;;5050102;28;20408;-75
2022/08/26 05:52:51;;;;;;;18.90;5.07;;;20.70;99.90;;;;;;5049864;28;20153;-72
2022/08/26 05:55:17;;;;;;;15.38;5.50;;;20.70;99.90;;;;;;5051042;28;20064;-73
2022/08/26 05:57:43;;;;;;;16.92;5.18;;;20.70;99.90;;;;;;5049799;28;20052;-72
2022/08/26 06:00:11;;;;;;;16.95;4.75;;;20.70;99.90;;;;;;5057693;28;20489;-73
2022/08/26 06:02:38;;;;;;;14.48;4.72;;;20.70;99.90;;;;;;5069645;28;20395;-72
2022/08/26 06:05:04;;;;;;;17.85;6.05;;;20.70;99.90;;;;;;5073189;28;20047;-73
2022/08/26 06:10:14;;;;;;;19.30;5.78;;;20.70;99.90;;;;;;5090102;28;20458;-73
2022/08/26 06:12:40;;;;;;;15.27;4.30;;;20.70;99.90;;;;;;5041216;28;20092;-73
2022/08/26 06:15:06;;;;;;;21.25;5.63;;;20.70;99.90;;;;;;5062852;28;20090;-73
2022/08/26 06:17:32;;;;;;;18.50;4.15;;;20.70;99.90;;;;;;5051495;28;20078;-73
2022/08/26 06:19:57;;;;;;;19.55;4.57;;;20.70;99.90;;;;;;5069494;28;20126;-72
2022/08/26 06:27:53;;;;;;;21.13;4.28;;;20.80;99.90;;;;;;4987984;28;20050;-72
2022/08/26 06:30:19;;;;;;;18.23;3.88;;;20.70;99.90;;;;;;4988075;28;20109;-72
2022/08/26 06:32:45;;;;;;;18.98;4.60;;;20.70;99.90;;;;;;4971481;28;20120;-71
2022/08/26 06:35:11;;;;;;;15.40;3.83;;;20.80;99.90;;;;;;4987610;28;20042;-77
2022/08/26 06:37:36;;;;;;;17.70;3.55;;;20.70;99.90;;;;;;4988721;28;20050;-73
2022/08/26 06:40:04;;;;;;;12.77;3.30;;;20.70;99.90;;;;;;4987442;28;20644;-72
2022/08/26 06:42:29;;;;;;;13.65;3.63;;;20.70;99.90;;;;;;4987708;28;20058;-71
2022/08/26 06:44:55;;;;;;;9.77;2.97;;;20.70;99.90;;;;;;4987980;28;20508;-72
2022/08/26 06:47:21;;;;;;;16.90;3.30;;;20.70;99.90;;;;;;4972133;28;20061;-73
2022/08/26 06:49:47;;;;;;;15.43;3.97;;;20.70;99.90;;;;;;4990793;28;20057;-72
2022/08/26 06:52:12;;;;;;;14.77;3.10;;;20.70;99.90;;;;;;4994687;28;20084;-72
2022/08/26 06:54:41;;;;;;;19.75;3.63;;;20.70;99.90;;;;;;5010542;28;20057;-72
2022/08/26 06:57:08;;;;;;;13.02;3.63;;;20.70;99.90;;;;;;5009244;28;20062;-70
2022/08/26 06:59:34;;;;;;;14.18;3.53;;;20.70;99.90;;;;;;5010944;28;20069;-72
2022/08/26 07:01:59;;;;;;;15.70;3.20;;;20.70;99.90;;;;;;5033385;28;20087;-72
2022/08/26 07:04:26;;;;;;;13.25;3.35;;;20.70;99.90;;;;;;5072644;28;20056;-78
2022/08/26 07:06:52;;;;;;;16.20;3.67;;;20.70;99.90;;;;;;5055200;28;20053;-78
2022/08/26 07:09:18;;;;;;;16.38;3.00;;;20.70;99.90;;;;;;5057736;28;20052;-73
2022/08/26 07:11:44;;;;;;;14.95;3.08;;;20.70;99.90;;;;;;5052653;28;20048;-79
2022/08/26 07:14:10;;;;;;;11.48;3.35;;;20.70;99.90;;;;;;5052709;28;20627;-76
2022/08/26 07:16:37;;;;;;;15.75;2.50;;;20.70;99.90;;;;;;5053019;28;20472;-81
2022/08/26 07:19:03;;;;;;;12.23;2.60;;;20.70;99.90;;;;;;5053477;28;20070;-75
2022/08/26 07:21:29;;;;;;;11.95;2.80;;;20.70;99.90;;;;;;5052680;28;20045;-78
2022/08/26 07:23:55;;;;;;;17.10;3.08;;;20.70;99.90;;;;;;5052666;28;20049;-76
2022/08/26 07:26:24;;;;;;;13.98;3.08;;;20.70;99.90;;;;;;5057442;28;20427;-73
2022/08/26 07:28:51;;;;;;;15.73;3.05;;;20.60;99.90;;;;;;5060276;28;20039;-83
2022/08/26 07:31:20;;;;;;;31.23;3.25;;;20.60;99.90;;;;;;5093062;28;20394;-77
2022/08/26 07:33:46;;;;;;;11.77;2.75;;;20.70;99.90;;;;;;5057946;28;20042;-78
2022/08/26 07:36:13;;;;;;;10.88;2.00;;;20.60;99.90;;;;;;5072575;28;20053;-74
2022/08/26 07:38:40;;;;;;;12.40;2.50;;;20.60;99.90;;;;;;5059374;28;20132;-73
2022/08/26 07:41:07;;;;;;;11.88;2.92;;;20.70;99.90;;;;;;5051868;28;20528;-72
2022/08/26 07:43:34;;;;;;;14.50;3.00;;;20.60;99.90;;;;;;5054302;28;20045;-75
2022/08/26 07:46:00;;;;;;;10.77;2.00;;;20.70;99.90;;;;;;5072442;28;20076;-73
2022/08/26 07:48:26;;;;;;;24.55;2.53;;;20.60;99.90;;;;;;5070232;28;20124;-75
2022/08/26 07:50:52;;;;;;;14.40;2.20;;;20.60;99.90;;;;;;5053403;28;20135;-72
2022/08/26 07:53:20;;;;;;;12.85;1.95;;;20.80;99.90;;;;;;5071892;28;20052;-72
2022/08/26 07:55:45;;;;;;;12.35;2.33;;;20.70;99.90;;;;;;5047377;28;20048;-71
2022/08/26 07:58:12;;;;;;;13.23;2.08;;;20.80;99.90;;;;;;5092407;28;20604;-75
2022/08/26 08:00:38;;;;;;;10.18;1.77;;;20.70;99.90;;;;;;5075799;28;20128;-72
2022/08/26 08:03:04;;;;;;;14.57;2.33;;;20.60;99.90;;;;;;5033308;28;20059;-74
2022/08/26 08:05:31;;;;;;;14.07;2.97;;;20.60;99.90;;;;;;5076462;28;20119;-68
2022/08/26 08:07:58;;;;;;;11.40;2.38;;;20.60;99.90;;;;;;5055725;28;20052;-73
2022/08/26 08:10:25;;;;;;;16.23;2.00;;;20.60;99.90;;;;;;5074228;28;20052;-71
2022/08/26 08:12:51;;;;;;;10.48;1.77;;;20.60;99.90;;;;;;5051511;28;20053;-71
2022/08/26 08:15:19;;;;;;;11.23;1.55;;;20.60;99.90;;;;;;5051690;28;20128;-74
2022/08/26 08:17:45;;;;;;;14.18;1.60;;;20.50;99.90;;;;;;5063018;28;20063;-70
2022/08/26 08:20:12;;;;;;;9.35;1.90;;;20.50;99.90;;;;;;5075627;28;20040;-72
2022/08/26 08:22:38;;;;;;;12.10;1.50;;;20.50;99.90;;;;;;5071439;28;20395;-73
2022/08/26 08:25:05;;;;;;;9.07;1.58;;;20.50;99.90;;;;;;5071333;28;20083;-71
2022/08/26 08:27:34;;;;;;;10.98;1.52;;;20.50;99.90;;;;;;5051287;28;20047;-74
2022/08/26 08:30:00;;;;;;;15.93;2.42;;;20.50;99.90;;;;;;5085471;28;20051;-72
2022/08/26 08:32:25;;;;;;;10.25;1.60;;;20.50;99.90;;;;;;5090186;28;20061;-72
2022/08/26 08:34:51;;;;;;;11.20;1.80;;;20.50;99.90;;;;;;5090384;28;20180;-71
2022/08/26 08:37:17;;;;;;;15.85;1.92;;;20.50;99.90;;;;;;5046726;28;20135;-73
2022/08/26 08:39:43;;;;;;;10.32;1.83;;;20.50;99.90;;;;;;5091230;28;20876;-72
2022/08/26 08:42:17;;;;;;;9.80;1.88;;;20.50;99.90;;;;;;5080355;28;20047;-71
2022/08/26 08:44:47;;;;;;;14.93;2.03;;;20.50;99.90;;;;;;5070873;28;20127;-71
2022/08/26 08:47:29;;;;;;;10.45;1.48;;;20.50;99.90;;;;;;5069791;28;20145;-73
2022/08/26 08:50:02;;;;;;;12.75;2.75;;;20.60;99.90;;;;;;5068971;28;20040;-73
2022/08/26 08:52:31;;;;;;;11.10;1.70;;;20.60;99.90;;;;;;5069661;28;20633;-73
2022/08/26 08:54:57;;;;;;;13.77;1.90;;;20.60;99.90;;;;;;5051645;28;20059;-73
2022/08/26 08:57:44;;;;;;;12.35;1.75;;;20.70;99.90;;;;;;5084593;28;20044;-70
2022/08/26 09:00:16;;;;;;;9.57;1.80;;;20.70;99.90;;;;;;5060019;28;20057;-73
2022/08/26 09:03:05;;;;;;;12.13;1.90;;;20.80;99.90;;;;;;5051247;28;20040;-71
2022/08/26 09:05:40;;;;;;;14.75;1.77;;;20.80;99.90;;;;;;5055703;28;20079;-70
2022/08/26 09:08:14;;;;;;;9.93;1.65;;;20.90;99.90;;;;;;5064394;28;20083;-75
2022/08/26 09:10:40;;;;;;;;;;;20.90;99.90;;;;;;5051860;28;20049;-71
2022/08/26 09:13:14;;;;;;;13.73;2.05;;;21.00;99.90;;;;;;5031444;28;19986;-72
2022/08/26 09:15:48;;;;;;;11.13;2.13;;;21.10;99.90;;;;;;5050069;28;20140;-71
2022/08/26 09:18:20;;;;;;;;;;;21.10;99.90;;;;;;5037490;28;20556;-71
2022/08/26 09:20:56;;;;;;;16.63;2.20;;;21.20;99.90;;;;;;5068138;28;19980;-70
2022/08/26 09:23:23;;;;;;;9.25;2.03;;;21.20;99.90;;;;;;5071030;28;20114;-70
2022/08/26 09:25:58;;;;;;;12.27;1.80;;;21.20;99.90;;;;;;5079461;28;20428;-73
2022/08/26 09:28:29;;;;;;;10.05;1.60;;;21.30;99.90;;;;;;5051176;28;20088;-73
2022/08/26 09:30:58;;;;;;;11.80;2.97;;;21.30;99.90;;;;;;5050517;28;20115;-71
2022/08/26 09:33:28;;;;;;;9.88;2.15;;;21.50;99.90;;;;;;5049546;28;20400;-75
2022/08/26 09:36:21;;;;;;;10.70;1.73;;;21.50;99.90;;;;;;5050159;28;20045;-77
2022/08/26 09:38:49;;;;;;;9.48;1.83;;;21.50;99.90;;;;;;5049389;28;20084;-70
2022/08/26 09:41:34;;;;;;;8.48;1.70;;;21.50;99.90;;;;;;5049745;28;20518;-71
2022/08/26 09:44:16;;;;;;;11.40;1.60;;;21.50;99.90;;;;;;5049904;28;20051;-73
2022/08/26 09:46:51;;;;;;;11.52;1.52;;;21.50;99.90;;;;;;5031297;28;20439;-72
2022/08/26 09:49:27;;;;;;;9.43;1.52;;;21.40;99.90;;;;;;5049460;28;20041;-72
2022/08/26 09:52:07;;;;;;;9.98;1.77;;;21.50;99.90;;;;;;5031304;28;20063;-72
2022/08/26 09:54:33;;;;;;;10.63;1.70;;;21.50;99.90;;;;;;5048823;28;20385;-74
2022/08/26 09:57:23;;;;;;;8.98;1.63;;;21.50;99.90;;;;;;5049037;28;20056;-71
2022/08/26 09:59:49;;;;;;;23.40;2.05;;;21.50;99.90;;;;;;5058418;28;20048;-73
2022/08/26 10:02:34;;;;;;;12.18;1.77;;;21.50;99.90;;;;;;5068995;28;20048;-71
2022/08/26 10:05:02;;;;;;;11.98;1.88;;;21.40;99.90;;;;;;5065577;28;20071;-70
2022/08/26 10:07:42;;;;;;;15.43;2.55;;;21.40;99.90;;;;;;5069467;28;20048;-71
2022/08/26 10:10:33;;;;;;;11.27;1.98;;;21.30;99.90;;;;;;5065193;28;20120;-72
2022/08/26 10:13:11;;;;;;;9.57;1.60;;;21.40;99.90;;;;;;5041767;28;20091;-71
2022/08/26 10:15:56;;;;;;;15.32;2.50;;;21.40;99.90;;;;;;5048812;28;20060;-76
2022/08/26 10:18:29;;;;;;;13.15;1.60;;;21.30;99.90;;;;;;5049448;28;20060;-78
2022/08/26 10:21:07;;;;;;;10.68;1.33;;;21.30;99.90;;;;;;5050024;28;20120;-73
2022/08/26 10:23:41;;;;;;;8.40;1.60;;;21.20;99.90;;;;;;5057621;28;20044;-75
2022/08/26 10:26:20;;;;;;;8.73;1.55;;;21.30;99.90;;;;;;5070776;28;20052;-72
2022/08/26 10:28:55;;;;;;;9.50;1.65;;;21.20;99.90;;;;;;5089206;28;20052;-75
2022/08/26 10:31:53;;;;;;;10.85;1.50;;;21.30;99.90;;;;;;5081281;28;20088;-75
2022/08/26 10:34:18;;;;;;;12.90;1.65;;;21.20;99.90;;;;;;5048444;28;20060;-74
2022/08/26 10:37:00;;;;;;;11.80;1.92;;;21.20;99.90;;;;;;5049040;28;20388;-74
2022/08/26 10:39:35;;;;;;;13.27;2.17;;;21.20;99.90;;;;;;5048608;28;20053;-75
2022/08/26 10:42:14;;;;;;;11.73;1.60;;;21.20;99.90;;;;;;5031495;28;20040;-72
2022/08/26 10:44:42;;;;;;;12.20;1.70;;;21.20;99.90;;;;;;5049015;28;20095;-73
2022/08/26 10:47:40;;;;;;;9.90;1.55;;;21.20;99.90;;;;;;5048340;28;20067;-71
2022/08/26 10:50:06;;;;;;;9.27;1.70;;;21.30;99.90;;;;;;4986868;28;20611;-71
2022/08/26 10:52:52;;;;;;;12.63;1.63;;;21.40;99.90;;;;;;4988113;28;20057;-72
2022/08/26 10:55:34;;;;;;;15.27;1.45;;;21.50;99.90;;;;;;5006230;28;20104;-72
2022/08/26 10:58:11;;;;;;;8.95;1.60;;;21.50;99.90;;;;;;5003256;28;20600;-73
2022/08/26 11:03:43;;;;;;;10.70;1.20;;;21.60;99.90;;;;;;5002484;28;20057;-72
2022/08/26 11:06:17;;;;;;;9.07;1.27;;;21.60;99.90;;;;;;4970529;28;20093;-73
2022/08/26 11:08:47;;;;;;;20.67;2.30;;;21.60;99.90;;;;;;4986422;28;20109;-76
2022/08/26 11:11:35;;;;;;;7.28;1.30;;;21.60;99.90;;;;;;4986776;28;20186;-73
2022/08/26 11:14:03;;;;;;;9.68;1.63;;;21.60;99.90;;;;;;4987126;28;20058;-72
2022/08/26 11:16:36;;;;;;;10.82;2.00;;;21.70;99.90;;;;;;4970343;28;20102;-73
2022/08/26 11:19:02;;;;;;;7.80;1.48;;;21.70;99.90;;;;;;4991192;28;20046;-72
2022/08/26 11:21:51;;;;;;;8.38;1.35;;;21.70;99.90;;;;;;5006167;28;20137;-72
2022/08/26 11:24:38;;;;;;;8.77;1.50;;;21.70;99.90;;;;;;5003796;28;20045;-72
2022/08/26 11:27:03;;;;;;;10.50;1.63;;;21.70;99.90;;;;;;5022106;28;20389;-75
2022/08/26 11:29:56;;;;;;;5.05;0.82;;;21.80;99.90;;;;;;5028926;28;20061;-76
2022/08/26 11:32:32;;;;;;;10.68;1.30;;;21.50;99.90;;;;;;5049550;28;20389;-77
2022/08/26 11:35:02;;;;;;;9.32;1.50;;;21.50;99.90;;;;;;5070312;28;20048;-73
2022/08/26 11:37:53;;;;;;;6.03;1.23;;;21.50;99.90;;;;;;5054307;28;20056;-73
2022/08/26 11:40:28;;;;;;;9.32;2.15;;;21.40;99.90;;;;;;5053047;28;20044;-75
2022/08/26 11:42:58;;;;;;;7.32;1.70;;;21.50;99.90;;;;;;5051761;28;20124;-79
2022/08/26 11:45:39;;;;;;;5.55;1.42;;;21.40;99.90;;;;;;5051398;28;20055;-70
2022/08/26 11:48:29;;;;;;;8.80;1.50;;;21.40;99.90;;;;;;5052872;28;20048;-79
2022/08/26 11:51:11;;;;;;;7.97;1.60;;;21.30;99.90;;;;;;5086169;28;20097;-77
2022/08/26 11:53:39;;;;;;;8.90;1.48;;;21.40;99.90;;;;;;5091741;28;20052;-73
2022/08/26 11:56:33;;;;;;;9.52;1.50;;;21.40;99.90;;;;;;5066173;28;20492;-78
2022/08/26 11:59:00;;;;;;;6.05;1.23;;;21.50;99.90;;;;;;5051998;28;20123;-75
2022/08/26 12:01:34;;;;;;;8.77;1.52;;;21.40;99.90;;;;;;5051456;28;20136;-77
2022/08/26 12:04:03;;;;;;;8.93;1.57;;;21.30;99.90;;;;;;5033530;28;20061;-77
2022/08/26 12:06:33;;;;;;;6.78;1.27;;;21.20;99.90;;;;;;5052383;28;20745;-75
2022/08/26 12:09:04;;;;;;;6.97;1.30;;;21.20;99.90;;;;;;5051388;28;20491;-73
2022/08/26 12:11:32;;;;;;;10.52;2.42;;;21.10;99.90;;;;;;5051399;28;20472;-73
2022/08/26 12:14:01;;;;;;;8.23;1.90;;;21.10;99.90;;;;;;5032971;28;20061;-78
2022/08/26 12:16:30;;;;;;;7.30;1.92;;;21.10;99.90;;;;;;5051658;28;20144;-74
2022/08/26 12:18:55;;;;;;;10.00;2.50;;;21.10;99.90;;;;;;5034121;28;20190;-73
2022/08/26 12:21:29;;;;;;;11.77;1.80;;;21.10;99.90;;;;;;5067987;28;20075;-75
2022/08/26 12:23:58;;;;;;;10.85;2.15;;;21.00;99.90;;;;;;5091862;28;20058;-75
2022/08/26 12:26:33;;;;;;;9.93;2.00;;;20.90;99.90;;;;;;5061851;28;20084;-75
2022/08/26 12:29:21;;;;;;;11.70;2.00;;;20.90;99.90;;;;;;5050834;28;20393;-73
2022/08/26 12:31:46;;;;;;;13.65;1.63;;;20.80;99.90;;;;;;5050151;28;20057;-75
2022/08/26 12:34:15;;;;;;;7.65;1.63;;;20.80;99.90;;;;;;5071232;28;20048;-72
2022/08/26 12:36:47;;;;;;;7.30;1.60;;;20.80;99.90;;;;;;5069114;28;20051;-71
2022/08/26 12:39:35;;;;;;;9.57;1.70;;;20.70;99.90;;;;;;5067778;28;20126;-73
2022/08/26 12:42:11;;;;;;;9.80;2.22;;;20.80;99.90;;;;;;5091216;28;20048;-71
2022/08/26 12:44:48;;;;;;;9.70;2.60;;;20.80;99.90;;;;;;5077744;28;20056;-72
2022/08/26 12:47:37;;;;;;;9.48;1.73;;;20.70;99.90;;;;;;5039883;28;20063;-70
2022/08/26 12:50:07;;;;;;;16.35;2.22;;;20.70;99.90;;;;;;5071059;28;20127;-75
2022/08/26 12:53:01;;;;;;;7.15;1.20;;;20.70;99.90;;;;;;5090375;28;20048;-75
2022/08/26 12:55:43;;;;;;;8.93;1.50;;;20.70;99.90;;;;;;5071758;28;20124;-72
2022/08/26 12:58:14;;;;;;;8.57;1.88;;;20.60;99.90;;;;;;5053093;28;20057;-72
2022/08/26 13:00:45;;;;;;;10.05;1.50;;;20.70;99.90;;;;;;5050635;28;20067;-71
2022/08/26 13:03:29;;;;;;;12.93;2.03;;;20.80;99.90;;;;;;5050528;28;20095;-82
2022/08/26 13:06:13;;;;;;;13.40;1.88;;;20.80;99.90;;;;;;5050195;28;20540;-79